createdAt,value
2018-12-01T00:01:34.633Z,16.57
2018-12-01T00:04:04.951Z,18.57
2018-12-01T00:06:34.404Z,17.80
2018-12-01T00:09:03.729Z,17.33
2018-12-01T00:11:34.441Z,17.13
2018-12-01T00:14:03.966Z,18.03
2018-12-01T00:16:36.013Z,15.70
2018-12-01T00:19:07.492Z,16.90
2018-12-01T00:21:38.361Z,17.60
2018-12-01T00:24:08.632Z,14.40
2018-12-01T00:26:37.839Z,14.60
2018-12-01T00:29:07.234Z,16.40
2018-12-01T00:31:36.532Z,15.70
2018-12-01T00:34:06.527Z,16.07
2018-12-01T00:36:36.977Z,18.90
2018-12-01T00:39:07.789Z,15.13
2018-12-01T00:41:43.741Z,13.63
2018-12-01T00:44:13.119Z,14.50
2018-12-01T00:46:42.703Z,17.00
2018-12-01T00:49:11.958Z,14.17
2018-12-01T00:51:43.760Z,20.90
2018-12-01T00:54:14.528Z,17.33
2018-12-01T00:56:45.091Z,18.90
2018-12-01T00:59:14.216Z,16.73
2018-12-01T01:01:43.654Z,17.67
2018-12-01T01:04:12.874Z,17.83
2018-12-01T01:06:42.272Z,18.70
2018-12-01T01:09:12.128Z,17.07
2018-12-01T01:11:41.507Z,18.70
2018-12-01T01:14:12.563Z,15.90
2018-12-01T01:16:41.813Z,14.23
2018-12-01T01:19:11.607Z,18.50
2018-12-01T01:21:41.499Z,14.63
2018-12-01T01:24:11.785Z,17.50
2018-12-01T01:26:41.888Z,22.53
2018-12-01T01:31:54.710Z,17.10
2018-12-01T01:34:24.501Z,14.73
2018-12-01T01:36:54.155Z,20.73
2018-12-01T01:39:23.548Z,18.90
2018-12-01T01:41:53.136Z,18.70
2018-12-01T01:44:22.470Z,19.80
2018-12-01T01:46:51.666Z,17.43
2018-12-01T01:49:23.006Z,18.50
2018-12-01T01:51:52.310Z,18.23
2018-12-01T01:54:22.272Z,20.77
2018-12-01T01:56:52.572Z,19.60
2018-12-01T01:59:21.963Z,20.33
2018-12-01T02:01:56.086Z,14.07
2018-12-01T02:04:25.406Z,17.43
2018-12-01T02:06:54.749Z,19.20
2018-12-01T02:09:24.101Z,21.10
2018-12-01T02:11:53.401Z,20.40
2018-12-01T02:14:23.007Z,18.10
2018-12-01T02:16:52.331Z,19.07
2018-12-01T02:19:21.667Z,19.50
2018-12-01T02:21:51.628Z,23.67
2018-12-01T02:24:21.223Z,22.43
2018-12-01T02:26:52.365Z,19.60
2018-12-01T02:29:21.565Z,25.63
2018-12-01T02:31:50.804Z,23.77
2018-12-01T02:34:20.360Z,26.03
2018-12-01T02:36:49.585Z,19.57
2018-12-01T02:39:18.870Z,22.03
2018-12-01T02:41:48.271Z,22.90
2018-12-01T02:44:28.819Z,25.17
2018-12-01T02:47:09.369Z,25.37
2018-12-01T02:49:43.984Z,28.93
2018-12-01T02:52:13.200Z,23.33
2018-12-01T02:54:42.412Z,20.80
2018-12-01T02:57:11.812Z,26.63
2018-12-01T02:59:41.004Z,25.43
2018-12-01T03:02:12.584Z,21.77
2018-12-01T03:04:42.040Z,22.10
2018-12-01T03:07:12.082Z,19.60
2018-12-01T03:09:41.401Z,19.80
2018-12-01T03:12:10.812Z,22.90
2018-12-01T03:14:40.804Z,23.43
2018-12-01T03:17:10.224Z,24.13
2018-12-01T03:19:39.742Z,20.87
2018-12-01T03:22:09.000Z,23.10
2018-12-01T03:24:38.865Z,19.53
2018-12-01T03:27:08.469Z,20.97
2018-12-01T03:29:37.559Z,22.50
2018-12-01T03:32:06.956Z,21.80
2018-12-01T03:34:36.300Z,22.00
2018-12-01T03:37:05.834Z,20.40
2018-12-01T03:39:35.206Z,18.57
2018-12-01T03:42:13.686Z,21.20
2018-12-01T03:44:43.290Z,21.30
2018-12-01T03:47:12.696Z,20.23
2018-12-01T03:49:42.137Z,26.53
2018-12-01T03:52:11.499Z,23.30
2018-12-01T03:54:40.787Z,22.83
2018-12-01T03:57:10.905Z,20.23
2018-12-01T03:59:41.188Z,20.43
2018-12-01T04:02:10.670Z,21.10
2018-12-01T04:04:39.964Z,27.20
2018-12-01T04:07:09.437Z,20.80
2018-12-01T04:09:39.155Z,22.00
2018-12-01T04:12:08.282Z,24.13
2018-12-01T04:14:37.924Z,22.70
2018-12-01T04:17:07.261Z,22.40
2018-12-01T04:19:37.696Z,24.33
2018-12-01T04:22:07.175Z,25.80
2018-12-01T04:24:36.790Z,22.57
2018-12-01T04:27:06.250Z,23.27
2018-12-01T04:29:36.970Z,25.20
2018-12-01T04:32:08.074Z,41.10
2018-12-01T04:34:37.696Z,24.97
2018-12-01T04:37:07.155Z,25.43
2018-12-01T04:39:37.800Z,24.00
2018-12-01T04:42:07.257Z,30.43
2018-12-01T04:44:36.738Z,32.23
2018-12-01T04:47:07.460Z,26.10
2018-12-01T04:49:36.831Z,30.97
2018-12-01T04:52:06.512Z,29.23
2018-12-01T04:54:36.783Z,31.50
2018-12-01T04:57:06.262Z,34.57
2018-12-01T04:59:36.638Z,26.97
2018-12-01T05:02:08.264Z,30.10
2018-12-01T05:04:41.078Z,34.63
2018-12-01T05:07:10.501Z,31.60
2018-12-01T05:09:41.275Z,33.00
2018-12-01T05:12:13.051Z,28.27
2018-12-01T05:14:44.062Z,33.17
2018-12-01T05:17:13.172Z,33.23
2018-12-01T05:19:42.394Z,34.97
2018-12-01T05:22:12.329Z,28.77
2018-12-01T05:24:47.593Z,31.33
2018-12-01T05:27:16.840Z,32.80
2018-12-01T05:29:46.170Z,28.30
2018-12-01T05:32:15.494Z,36.50
2018-12-01T05:34:44.745Z,31.90
2018-12-01T05:37:14.237Z,30.80
2018-12-01T05:39:45.318Z,29.67
2018-12-01T05:42:14.576Z,29.83
2018-12-01T05:47:32.593Z,31.00
2018-12-01T05:50:01.855Z,31.50
2018-12-01T05:52:30.975Z,26.00
2018-12-01T05:55:00.241Z,29.00
2018-12-01T05:57:29.533Z,31.27
2018-12-01T06:00:01.393Z,26.40
2018-12-01T06:02:33.678Z,33.30
2018-12-01T06:05:03.082Z,27.73
2018-12-01T06:07:35.545Z,31.73
2018-12-01T06:10:08.012Z,29.93
2018-12-01T06:12:39.171Z,32.20
2018-12-01T06:15:11.575Z,36.30
2018-12-01T06:17:41.670Z,31.57
2018-12-01T06:20:16.311Z,32.37
2018-12-01T06:22:45.774Z,32.70
2018-12-01T06:25:16.078Z,34.87
2018-12-01T06:30:31.981Z,35.40
2018-12-01T06:33:06.655Z,27.50
2018-12-01T06:35:36.032Z,31.40
2018-12-01T06:38:06.496Z,35.90
2018-12-01T06:40:42.296Z,29.50
2018-12-01T06:43:11.672Z,32.83
2018-12-01T06:45:40.843Z,30.17
2018-12-01T06:48:14.919Z,27.90
2018-12-01T06:50:52.258Z,30.13
2018-12-01T06:53:31.307Z,33.40
2018-12-01T06:56:09.344Z,34.13
2018-12-01T06:58:41.537Z,31.23
2018-12-01T07:01:10.950Z,33.67
2018-12-01T07:03:40.213Z,31.07
2018-12-01T07:09:11.474Z,31.00
2018-12-01T07:11:42.469Z,34.50
2018-12-01T07:14:13.853Z,33.77
2018-12-01T07:19:39.910Z,34.83
2018-12-01T07:22:09.460Z,32.57
2018-12-01T07:24:41.947Z,34.17
2018-12-01T07:32:43.273Z,29.37
2018-12-01T07:35:39.528Z,29.77
2018-12-01T07:38:11.124Z,23.70
2018-12-01T07:40:40.630Z,26.13
2018-12-01T07:43:11.456Z,25.70
2018-12-01T07:45:52.600Z,23.80
2018-12-01T07:48:22.929Z,27.00
2018-12-01T07:50:52.733Z,25.57
2018-12-01T07:53:35.492Z,25.57
2018-12-01T07:56:09.020Z,28.67
2018-12-01T07:58:40.803Z,25.00
2018-12-01T08:01:26.776Z,24.30
2018-12-01T08:17:31.985Z,22.63
2018-12-01T08:20:14.594Z,16.77
2018-12-01T08:22:58.420Z,24.40
2018-12-01T08:25:28.344Z,20.47
2018-12-01T08:34:37.748Z,21.37
2018-12-01T08:37:10.743Z,18.90
2018-12-01T08:39:40.654Z,19.17
2018-12-01T08:42:11.810Z,19.60
2018-12-01T08:44:41.155Z,20.20
2018-12-01T08:47:10.618Z,18.67
2018-12-01T08:49:39.636Z,17.93
2018-12-01T08:52:20.366Z,18.30
2018-12-01T08:54:50.971Z,19.40
2018-12-01T08:57:24.226Z,20.17
2018-12-01T09:05:52.517Z,20.30
2018-12-01T09:08:23.656Z,17.87
2018-12-01T09:10:53.561Z,20.07
2018-12-01T09:16:05.176Z,24.93
2018-12-01T09:18:38.868Z,24.10
2018-12-01T09:51:10.915Z,20.57
2018-12-01T10:04:38.002Z,17.53
2018-12-01T10:07:26.650Z,19.67
2018-12-01T10:13:27.180Z,16.23
2018-12-01T10:16:01.061Z,17.07
2018-12-01T10:18:36.042Z,16.40
2018-12-01T10:24:10.818Z,16.10
2018-12-01T10:26:47.877Z,19.43
2018-12-01T10:29:17.450Z,18.10
2018-12-01T10:31:46.789Z,18.87
2018-12-01T10:34:16.186Z,19.50
2018-12-01T10:36:46.136Z,19.90
2018-12-01T10:39:17.200Z,16.40
2018-12-01T10:41:47.390Z,17.50
2018-12-01T10:44:16.715Z,17.33
2018-12-01T10:46:46.773Z,18.43
2018-12-01T10:49:17.350Z,19.50
2018-12-01T10:51:48.105Z,22.40
2018-12-01T10:54:20.911Z,17.83
2018-12-01T10:56:51.311Z,19.63
2018-12-01T10:59:21.741Z,21.70
2018-12-01T11:01:57.782Z,17.40
2018-12-01T11:04:32.976Z,19.10
2018-12-01T11:07:04.887Z,18.97
2018-12-01T11:09:36.718Z,14.97
2018-12-01T11:12:06.332Z,18.10
2018-12-01T11:14:43.414Z,15.27
2018-12-01T11:17:13.679Z,18.53
2018-12-01T11:19:44.481Z,14.80
2018-12-01T11:22:16.648Z,15.20
2018-12-01T11:24:49.334Z,17.17
2018-12-01T11:27:19.550Z,13.83
2018-12-01T11:30:13.897Z,15.63
2018-12-01T11:32:43.517Z,18.43
2018-12-01T11:35:14.901Z,19.10
2018-12-01T11:37:44.789Z,19.47
2018-12-01T11:40:25.098Z,20.40
2018-12-01T11:42:54.634Z,14.73
2018-12-01T11:45:24.230Z,20.90
2018-12-01T11:47:54.298Z,16.77
2018-12-01T11:50:26.074Z,14.93
2018-12-01T11:52:57.763Z,17.33
2018-12-01T11:55:27.377Z,16.33
2018-12-01T11:57:59.200Z,13.53
2018-12-01T12:00:29.993Z,17.23
2018-12-01T12:03:00.071Z,16.23
2018-12-01T12:05:37.687Z,15.37
2018-12-01T12:08:26.040Z,15.17
2018-12-01T12:10:56.234Z,14.73
2018-12-01T12:13:26.878Z,12.60
2018-12-01T12:15:56.541Z,16.17
2018-12-01T12:18:26.090Z,15.03
2018-12-01T12:24:05.153Z,12.83
2018-12-01T12:26:43.500Z,13.83
2018-12-01T12:29:13.874Z,15.20
2018-12-01T12:31:43.349Z,12.13
2018-12-01T12:34:12.644Z,13.67
2018-12-01T12:36:42.347Z,15.60
2018-12-01T12:39:12.021Z,13.43
2018-12-01T12:41:48.043Z,13.77
2018-12-01T12:44:18.375Z,14.37
2018-12-01T12:46:47.622Z,14.40
2018-12-01T12:49:18.350Z,13.47
2018-12-01T12:51:48.064Z,13.80
2018-12-01T12:54:18.709Z,16.43
2018-12-01T12:56:48.793Z,16.33
2018-12-01T12:59:19.534Z,15.90
2018-12-01T13:01:49.126Z,15.50
2018-12-01T13:04:20.872Z,19.27
2018-12-01T13:06:50.270Z,20.77
2018-12-01T13:09:19.728Z,16.93
2018-12-01T13:11:49.698Z,19.50
2018-12-01T13:14:20.215Z,17.50
2018-12-01T13:16:49.911Z,13.47
2018-12-01T13:19:19.666Z,17.80
2018-12-01T13:21:49.286Z,16.10
2018-12-01T13:24:18.468Z,14.17
2018-12-01T13:26:47.983Z,12.30
2018-12-01T13:29:19.379Z,11.63
2018-12-01T13:31:54.398Z,13.53
2018-12-01T13:34:19.734Z,17.57
2018-12-01T13:36:50.300Z,14.57
2018-12-01T13:39:19.761Z,13.23
2018-12-01T13:41:49.005Z,20.97
2018-12-01T13:44:18.325Z,12.17
2018-12-01T13:46:48.612Z,14.53
2018-12-01T13:49:23.176Z,11.13
2018-12-01T13:51:52.765Z,15.97
2018-12-01T13:54:24.314Z,9.83
2018-12-01T13:56:56.728Z,13.70
2018-12-01T13:59:25.909Z,12.40
2018-12-01T14:01:58.170Z,11.13
2018-12-01T14:04:27.766Z,13.73
2018-12-01T14:06:58.892Z,10.23
2018-12-01T14:09:28.260Z,11.40
2018-12-01T14:11:58.586Z,9.00
2018-12-01T14:14:28.399Z,14.63
2018-12-01T14:16:57.709Z,13.33
2018-12-01T14:19:27.013Z,12.70
2018-12-01T14:21:56.351Z,8.30
2018-12-01T14:24:25.721Z,11.23
2018-12-01T14:26:55.141Z,11.70
2018-12-01T14:29:26.817Z,8.70
2018-12-01T14:31:57.201Z,12.10
2018-12-01T14:34:30.239Z,11.47
2018-12-01T14:36:59.444Z,14.17
2018-12-01T14:39:29.871Z,9.00
2018-12-01T14:42:16.831Z,10.90
2018-12-01T14:44:46.090Z,8.07
2018-12-01T14:47:17.100Z,9.70
2018-12-01T14:49:50.128Z,10.47
2018-12-01T14:52:24.112Z,12.10
2018-12-01T14:54:53.532Z,14.23
2018-12-01T14:57:22.948Z,11.93
2018-12-01T14:59:53.973Z,7.77
2018-12-01T15:02:23.612Z,8.17
2018-12-01T15:04:53.063Z,10.30
2018-12-01T15:07:22.548Z,15.40
2018-12-01T15:09:54.436Z,12.23
2018-12-01T15:12:29.281Z,8.60
2018-12-01T15:14:59.443Z,14.27
2018-12-01T15:17:28.841Z,11.37
2018-12-01T15:20:00.124Z,12.57
2018-12-01T15:22:29.980Z,10.70
2018-12-01T15:25:00.122Z,12.53
2018-12-01T15:27:30.439Z,12.10
2018-12-01T15:30:00.217Z,20.90
2018-12-01T15:32:33.695Z,12.27
2018-12-01T15:35:03.663Z,10.40
2018-12-01T15:37:33.560Z,12.40
2018-12-01T15:40:10.590Z,9.20
2018-12-01T15:42:40.565Z,13.57
2018-12-01T15:45:13.235Z,7.97
2018-12-01T15:47:43.182Z,10.87
2018-12-01T15:50:17.288Z,9.77
2018-12-01T15:52:53.662Z,11.73
2018-12-01T15:55:26.826Z,12.27
2018-12-01T15:57:56.425Z,10.37
2018-12-01T16:00:27.244Z,11.83
2018-12-01T16:02:56.960Z,15.07
2018-12-01T16:05:26.237Z,13.10
2018-12-01T16:07:56.934Z,11.43
2018-12-01T16:10:31.808Z,11.93
2018-12-01T16:13:41.932Z,11.90
2018-12-01T16:16:13.089Z,12.70
2018-12-01T16:18:43.473Z,10.77
2018-12-01T16:21:14.115Z,8.90
2018-12-01T16:23:44.936Z,9.80
2018-12-01T16:26:15.745Z,11.60
2018-12-01T16:28:45.734Z,9.70
2018-12-01T16:31:16.647Z,7.97
2018-12-01T16:33:46.692Z,9.90
2018-12-01T16:36:16.349Z,9.83
2018-12-01T16:38:46.601Z,10.00
2018-12-01T16:41:19.370Z,10.57
2018-12-01T16:43:49.371Z,10.70
2018-12-01T16:46:19.128Z,12.83
2018-12-01T16:48:51.266Z,11.07
2018-12-01T16:51:20.592Z,12.47
2018-12-01T16:53:53.902Z,10.47
2018-12-01T16:59:00.915Z,10.60
2018-12-01T17:01:30.216Z,8.20
2018-12-01T17:04:05.640Z,9.87
2018-12-01T17:06:36.372Z,11.00
2018-12-01T17:09:13.705Z,9.80
2018-12-01T17:11:46.317Z,7.50
2018-12-01T17:14:18.158Z,12.53
2018-12-01T17:31:41.782Z,10.10
2018-12-01T17:34:33.465Z,9.17
2018-12-01T17:56:22.948Z,10.20
2018-12-01T18:11:36.520Z,8.60
2018-12-01T18:14:39.361Z,5.90
2018-12-01T18:17:23.285Z,7.97
2018-12-01T18:20:11.848Z,9.77
2018-12-01T18:22:54.711Z,10.60
2018-12-01T19:34:32.196Z,8.67
2018-12-01T19:37:44.376Z,9.30
2018-12-01T19:40:31.303Z,7.90
2018-12-01T23:04:11.520Z,4.50
2018-12-01T23:06:42.166Z,6.47
2018-12-01T23:09:11.445Z,7.63
2018-12-01T23:11:44.558Z,6.40
2018-12-01T23:14:14.596Z,6.80
2018-12-01T23:16:49.032Z,5.93
2018-12-01T23:19:18.360Z,7.33
2018-12-01T23:21:51.607Z,7.00
2018-12-01T23:24:20.897Z,6.87
2018-12-01T23:26:54.459Z,7.80
2018-12-01T23:29:28.207Z,7.70
2018-12-01T23:31:57.540Z,9.77
2018-12-01T23:34:33.092Z,8.00
2018-12-01T23:37:02.334Z,5.40
2018-12-01T23:39:32.304Z,6.60
2018-12-01T23:42:02.764Z,7.20
2018-12-01T23:44:31.932Z,7.53
2018-12-01T23:47:07.252Z,7.50
2018-12-01T23:49:36.758Z,8.33
2018-12-01T23:52:07.102Z,7.80
2018-12-01T23:54:37.414Z,7.13
2018-12-01T23:57:06.996Z,11.20
2018-12-01T23:59:36.679Z,7.03
